sensor_id;sensor_type;location;lat;lon;timestamp;P1;durP1;ratioP1;P2;durP2;ratioP2
8536;SDS011;4306;50.210;10.628;2024-03-08T00:02:13;32.50;;;18.07;;
8536;SDS011;4306;50.210;10.628;2024-03-08T00:04:40;32.00;;;18.83;;
8536;SDS011;4306;50.210;10.628;2024-03-08T00:07:09;30.93;;;17.47;;
8536;SDS011;4306;50.210;10.628;2024-03-08T00:09:37;29.90;;;17.10;;
8536;SDS011;4306;50.210;10.628;2024-03-08T00:12:04;30.70;;;16.90;;
8536;SDS011;4306;50.210;10.628;2024-03-08T00:14:32;31.13;;;17.00;;
8536;SDS011;4306;50.210;10.628;2024-03-08T00:17:00;30.37;;;17.30;;
8536;SDS011;4306;50.210;10.628;2024-03-08T00:19:28;27.50;;;15.53;;
8536;SDS011;4306;50.210;10.628;2024-03-08T00:21:55;31.63;;;17.83;;
8536;SDS011;4306;50.210;10.628;2024-03-08T00:24:24;32.00;;;17.47;;
8536;SDS011;4306;50.210;10.628;2024-03-08T00:26:51;31.23;;;17.10;;
8536;SDS011;4306;50.210;10.628;2024-03-08T00:29:18;29.20;;;17.47;;
8536;SDS011;4306;50.210;10.628;2024-03-08T00:31:47;27.23;;;16.87;;
8536;SDS011;4306;50.210;10.628;2024-03-08T00:34:14;29.33;;;16.57;;
8536;SDS011;4306;50.210;10.628;2024-03-08T00:36:41;31.00;;;17.70;;
8536;SDS011;4306;50.210;10.628;2024-03-08T00:39:09;31.93;;;16.77;;
8536;SDS011;4306;50.210;10.628;2024-03-08T00:41:38;30.20;;;17.13;;
8536;SDS011;4306;50.210;10.628;2024-03-08T00:44:05;29.87;;;16.80;;
8536;SDS011;4306;50.210;10.628;2024-03-08T00:46:32;29.53;;;17.83;;
8536;SDS011;4306;50.210;10.628;2024-03-08T00:49:00;27.37;;;15.83;;
8536;SDS011;4306;50.210;10.628;2024-03-08T00:51:27;28.83;;;16.80;;
8536;SDS011;4306;50.210;10.628;2024-03-08T00:53:54;33.03;;;17.40;;
8536;SDS011;4306;50.210;10.628;2024-03-08T00:56:21;30.97;;;17.27;;
8536;SDS011;4306;50.210;10.628;2024-03-08T00:58:51;29.93;;;17.10;;
8536;SDS011;4306;50.210;10.628;2024-03-08T01:01:18;29.07;;;16.53;;
8536;SDS011;4306;50.210;10.628;2024-03-08T01:03:45;31.17;;;17.70;;
8536;SDS011;4306;50.210;10.628;2024-03-08T01:06:13;30.13;;;16.83;;
8536;SDS011;4306;50.210;10.628;2024-03-08T01:08:40;32.53;;;17.10;;
8536;SDS011;4306;50.210;10.628;2024-03-08T01:11:08;31.83;;;16.57;;
8536;SDS011;4306;50.210;10.628;2024-03-08T01:13:36;31.07;;;17.67;;
8536;SDS011;4306;50.210;10.628;2024-03-08T01:16:05;31.33;;;17.40;;
8536;SDS011;4306;50.210;10.628;2024-03-08T01:18:32;33.87;;;18.20;;
8536;SDS011;4306;50.210;10.628;2024-03-08T01:20:59;34.10;;;17.37;;
8536;SDS011;4306;50.210;10.628;2024-03-08T01:23:26;28.73;;;17.07;;
8536;SDS011;4306;50.210;10.628;2024-03-08T01:25:54;28.87;;;16.97;;
8536;SDS011;4306;50.210;10.628;2024-03-08T01:28:23;29.03;;;16.83;;
8536;SDS011;4306;50.210;10.628;2024-03-08T01:30:50;31.03;;;17.50;;
8536;SDS011;4306;50.210;10.628;2024-03-08T01:33:22;29.10;;;17.90;;
8536;SDS011;4306;50.210;10.628;2024-03-08T01:35:50;31.33;;;17.50;;
8536;SDS011;4306;50.210;10.628;2024-03-08T01:38:17;33.40;;;17.43;;
8536;SDS011;4306;50.210;10.628;2024-03-08T01:40:46;29.83;;;17.17;;
8536;SDS011;4306;50.210;10.628;2024-03-08T01:43:17;31.60;;;17.37;;
8536;SDS011;4306;50.210;10.628;2024-03-08T01:45:45;31.43;;;18.13;;
8536;SDS011;4306;50.210;10.628;2024-03-08T01:48:13;30.13;;;17.43;;
8536;SDS011;4306;50.210;10.628;2024-03-08T01:50:43;32.13;;;18.17;;
8536;SDS011;4306;50.210;10.628;2024-03-08T01:53:10;32.03;;;18.33;;
8536;SDS011;4306;50.210;10.628;2024-03-08T01:55:40;34.30;;;18.63;;
8536;SDS011;4306;50.210;10.628;2024-03-08T01:58:09;29.23;;;16.60;;
8536;SDS011;4306;50.210;10.628;2024-03-08T02:00:36;31.90;;;17.63;;
8536;SDS011;4306;50.210;10.628;2024-03-08T02:03:06;34.93;;;18.73;;
8536;SDS011;4306;50.210;10.628;2024-03-08T02:05:33;29.20;;;17.23;;
8536;SDS011;4306;50.210;10.628;2024-03-08T02:08:02;33.63;;;17.37;;
8536;SDS011;4306;50.210;10.628;2024-03-08T02:10:31;32.30;;;18.33;;
8536;SDS011;4306;50.210;10.628;2024-03-08T02:12:58;32.67;;;17.60;;
8536;SDS011;4306;50.210;10.628;2024-03-08T02:15:25;33.63;;;18.33;;
8536;SDS011;4306;50.210;10.628;2024-03-08T02:17:52;32.17;;;17.73;;
8536;SDS011;4306;50.210;10.628;2024-03-08T02:20:19;30.70;;;18.30;;
8536;SDS011;4306;50.210;10.628;2024-03-08T02:22:48;34.50;;;19.70;;
8536;SDS011;4306;50.210;10.628;2024-03-08T02:25:15;30.80;;;17.40;;
8536;SDS011;4306;50.210;10.628;2024-03-08T02:27:44;36.07;;;19.03;;
8536;SDS011;4306;50.210;10.628;2024-03-08T02:30:11;32.40;;;18.33;;
8536;SDS011;4306;50.210;10.628;2024-03-08T02:32:39;31.80;;;18.17;;
8536;SDS011;4306;50.210;10.628;2024-03-08T02:35:08;35.13;;;19.10;;
8536;SDS011;4306;50.210;10.628;2024-03-08T02:37:35;31.07;;;17.97;;
8536;SDS011;4306;50.210;10.628;2024-03-08T02:40:05;33.40;;;18.40;;
8536;SDS011;4306;50.210;10.628;2024-03-08T02:42:33;34.70;;;18.23;;
8536;SDS011;4306;50.210;10.628;2024-03-08T02:45:00;30.77;;;18.50;;
8536;SDS011;4306;50.210;10.628;2024-03-08T02:47:27;34.10;;;18.23;;
8536;SDS011;4306;50.210;10.628;2024-03-08T02:49:56;30.30;;;18.20;;
8536;SDS011;4306;50.210;10.628;2024-03-08T02:52:23;31.97;;;18.23;;
8536;SDS011;4306;50.210;10.628;2024-03-08T02:54:50;35.27;;;19.03;;
8536;SDS011;4306;50.210;10.628;2024-03-08T02:57:19;32.90;;;18.67;;
8536;SDS011;4306;50.210;10.628;2024-03-08T02:59:47;33.00;;;19.17;;
8536;SDS011;4306;50.210;10.628;2024-03-08T03:02:14;32.63;;;18.13;;
8536;SDS011;4306;50.210;10.628;2024-03-08T03:04:41;37.17;;;19.37;;
8536;SDS011;4306;50.210;10.628;2024-03-08T03:07:08;36.00;;;19.40;;
8536;SDS011;4306;50.210;10.628;2024-03-08T03:09:36;34.13;;;19.30;;
8536;SDS011;4306;50.210;10.628;2024-03-08T03:12:03;33.87;;;19.00;;
8536;SDS011;4306;50.210;10.628;2024-03-08T03:14:36;32.67;;;18.40;;
8536;SDS011;4306;50.210;10.628;2024-03-08T03:17:03;32.33;;;18.77;;
8536;SDS011;4306;50.210;10.628;2024-03-08T03:19:30;30.83;;;18.03;;
8536;SDS011;4306;50.210;10.628;2024-03-08T03:21:57;36.57;;;19.33;;
8536;SDS011;4306;50.210;10.628;2024-03-08T03:24:24;34.73;;;18.33;;
8536;SDS011;4306;50.210;10.628;2024-03-08T03:26:54;34.70;;;18.30;;
8536;SDS011;4306;50.210;10.628;2024-03-08T03:29:21;33.93;;;19.90;;
8536;SDS011;4306;50.210;10.628;2024-03-08T03:31:50;40.57;;;20.30;;
8536;SDS011;4306;50.210;10.628;2024-03-08T03:34:17;36.13;;;19.13;;
8536;SDS011;4306;50.210;10.628;2024-03-08T03:36:44;36.47;;;19.70;;
8536;SDS011;4306;50.210;10.628;2024-03-08T03:39:12;38.20;;;19.67;;
8536;SDS011;4306;50.210;10.628;2024-03-08T03:41:41;38.70;;;20.50;;
8536;SDS011;4306;50.210;10.628;2024-03-08T03:44:10;39.70;;;20.40;;
8536;SDS011;4306;50.210;10.628;2024-03-08T03:46:41;34.07;;;18.50;;
8536;SDS011;4306;50.210;10.628;2024-03-08T03:49:11;35.90;;;19.00;;
8536;SDS011;4306;50.210;10.628;2024-03-08T03:51:38;33.63;;;18.97;;
8536;SDS011;4306;50.210;10.628;2024-03-08T03:54:05;32.17;;;17.47;;
8536;SDS011;4306;50.210;10.628;2024-03-08T03:56:32;31.63;;;18.27;;
8536;SDS011;4306;50.210;10.628;2024-03-08T03:58:59;31.77;;;18.07;;
8536;SDS011;4306;50.210;10.628;2024-03-08T04:01:26;33.03;;;18.10;;
8536;SDS011;4306;50.210;10.628;2024-03-08T04:03:54;32.43;;;18.33;;
8536;SDS011;4306;50.210;10.628;2024-03-08T04:06:23;33.73;;;17.93;;
8536;SDS011;4306;50.210;10.628;2024-03-08T04:08:50;33.40;;;18.57;;
8536;SDS011;4306;50.210;10.628;2024-03-08T04:11:17;31.80;;;17.50;;
8536;SDS011;4306;50.210;10.628;2024-03-08T04:13:44;31.40;;;17.77;;
8536;SDS011;4306;50.210;10.628;2024-03-08T04:16:11;32.17;;;18.20;;
8536;SDS011;4306;50.210;10.628;2024-03-08T04:18:38;32.47;;;17.60;;
8536;SDS011;4306;50.210;10.628;2024-03-08T04:21:05;35.30;;;18.03;;
8536;SDS011;4306;50.210;10.628;2024-03-08T04:23:34;33.27;;;18.00;;
8536;SDS011;4306;50.210;10.628;2024-03-08T04:26:01;31.73;;;16.70;;
8536;SDS011;4306;50.210;10.628;2024-03-08T04:28:30;34.07;;;18.77;;
8536;SDS011;4306;50.210;10.628;2024-03-08T04:30:57;36.33;;;18.53;;
8536;SDS011;4306;50.210;10.628;2024-03-08T04:33:25;33.53;;;17.77;;
8536;SDS011;4306;50.210;10.628;2024-03-08T04:35:53;31.53;;;17.00;;
8536;SDS011;4306;50.210;10.628;2024-03-08T04:38:19;28.20;;;16.83;;
8536;SDS011;4306;50.210;10.628;2024-03-08T04:40:47;30.67;;;16.87;;
8536;SDS011;4306;50.210;10.628;2024-03-08T04:43:15;29.43;;;16.70;;
8536;SDS011;4306;50.210;10.628;2024-03-08T04:45:43;33.37;;;17.80;;
8536;SDS011;4306;50.210;10.628;2024-03-08T04:48:10;30.27;;;17.60;;
8536;SDS011;4306;50.210;10.628;2024-03-08T04:50:38;32.03;;;17.27;;
8536;SDS011;4306;50.210;10.628;2024-03-08T04:53:05;36.60;;;20.03;;
8536;SDS011;4306;50.210;10.628;2024-03-08T04:55:33;32.87;;;19.03;;
8536;SDS011;4306;50.210;10.628;2024-03-08T04:58:03;34.70;;;18.63;;
8536;SDS011;4306;50.210;10.628;2024-03-08T05:00:37;32.87;;;17.67;;
8536;SDS011;4306;50.210;10.628;2024-03-08T05:03:04;35.50;;;18.33;;
8536;SDS011;4306;50.210;10.628;2024-03-08T05:05:31;38.00;;;18.27;;
8536;SDS011;4306;50.210;10.628;2024-03-08T05:07:58;33.47;;;19.30;;
8536;SDS011;4306;50.210;10.628;2024-03-08T05:10:27;35.10;;;18.83;;
8536;SDS011;4306;50.210;10.628;2024-03-08T05:12:57;36.73;;;19.53;;
8536;SDS011;4306;50.210;10.628;2024-03-08T05:15:26;34.17;;;19.07;;
8536;SDS011;4306;50.210;10.628;2024-03-08T05:17:53;35.73;;;18.53;;
8536;SDS011;4306;50.210;10.628;2024-03-08T05:20:21;38.57;;;19.70;;
8536;SDS011;4306;50.210;10.628;2024-03-08T05:22:48;38.57;;;19.33;;
8536;SDS011;4306;50.210;10.628;2024-03-08T05:25:16;37.77;;;18.80;;
8536;SDS011;4306;50.210;10.628;2024-03-08T05:27:43;37.53;;;18.97;;
8536;SDS011;4306;50.210;10.628;2024-03-08T05:30:12;37.40;;;19.87;;
8536;SDS011;4306;50.210;10.628;2024-03-08T05:32:41;37.53;;;19.80;;
8536;SDS011;4306;50.210;10.628;2024-03-08T05:35:09;38.93;;;20.10;;
8536;SDS011;4306;50.210;10.628;2024-03-08T05:37:37;42.37;;;19.77;;
8536;SDS011;4306;50.210;10.628;2024-03-08T05:40:05;35.23;;;18.20;;
8536;SDS011;4306;50.210;10.628;2024-03-08T05:42:34;39.23;;;20.63;;
8536;SDS011;4306;50.210;10.628;2024-03-08T05:45:02;37.17;;;19.80;;
8536;SDS011;4306;50.210;10.628;2024-03-08T05:47:31;35.33;;;19.53;;
8536;SDS011;4306;50.210;10.628;2024-03-08T05:50:00;38.03;;;19.57;;
8536;SDS011;4306;50.210;10.628;2024-03-08T05:52:27;36.97;;;19.70;;
8536;SDS011;4306;50.210;10.628;2024-03-08T05:54:54;38.07;;;18.77;;
8536;SDS011;4306;50.210;10.628;2024-03-08T05:57:22;35.67;;;18.63;;
8536;SDS011;4306;50.210;10.628;2024-03-08T05:59:50;34.37;;;18.63;;
8536;SDS011;4306;50.210;10.628;2024-03-08T06:02:17;38.63;;;19.67;;
8536;SDS011;4306;50.210;10.628;2024-03-08T06:04:44;43.97;;;21.97;;
8536;SDS011;4306;50.210;10.628;2024-03-08T06:07:13;40.20;;;21.17;;
8536;SDS011;4306;50.210;10.628;2024-03-08T06:09:40;37.23;;;19.60;;
8536;SDS011;4306;50.210;10.628;2024-03-08T06:12:10;38.33;;;20.43;;
8536;SDS011;4306;50.210;10.628;2024-03-08T06:14:37;35.57;;;19.40;;
8536;SDS011;4306;50.210;10.628;2024-03-08T06:17:04;31.83;;;18.67;;
8536;SDS011;4306;50.210;10.628;2024-03-08T06:19:32;34.43;;;18.83;;
8536;SDS011;4306;50.210;10.628;2024-03-08T06:22:01;33.10;;;17.40;;
8536;SDS011;4306;50.210;10.628;2024-03-08T06:24:32;36.17;;;19.13;;
8536;SDS011;4306;50.210;10.628;2024-03-08T06:27:01;31.87;;;18.87;;
8536;SDS011;4306;50.210;10.628;2024-03-08T06:29:28;39.10;;;21.17;;
8536;SDS011;4306;50.210;10.628;2024-03-08T06:31:55;37.30;;;19.97;;
8536;SDS011;4306;50.210;10.628;2024-03-08T06:34:23;33.70;;;19.20;;
8536;SDS011;4306;50.210;10.628;2024-03-08T06:36:50;31.73;;;17.77;;
8536;SDS011;4306;50.210;10.628;2024-03-08T06:39:17;37.67;;;18.27;;
8536;SDS011;4306;50.210;10.628;2024-03-08T06:41:46;34.30;;;19.80;;
8536;SDS011;4306;50.210;10.628;2024-03-08T06:44:16;37.57;;;20.23;;
8536;SDS011;4306;50.210;10.628;2024-03-08T06:46:46;33.00;;;18.20;;
8536;SDS011;4306;50.210;10.628;2024-03-08T06:49:14;32.90;;;19.13;;
8536;SDS011;4306;50.210;10.628;2024-03-08T06:51:41;33.20;;;19.63;;
8536;SDS011;4306;50.210;10.628;2024-03-08T06:54:08;36.70;;;17.73;;
8536;SDS011;4306;50.210;10.628;2024-03-08T06:56:35;32.93;;;18.67;;
8536;SDS011;4306;50.210;10.628;2024-03-08T06:59:04;31.87;;;19.10;;
8536;SDS011;4306;50.210;10.628;2024-03-08T07:01:31;32.27;;;19.07;;
8536;SDS011;4306;50.210;10.628;2024-03-08T07:04:00;34.00;;;19.53;;
8536;SDS011;4306;50.210;10.628;2024-03-08T07:06:30;40.47;;;23.30;;
8536;SDS011;4306;50.210;10.628;2024-03-08T07:08:59;46.33;;;24.90;;
8536;SDS011;4306;50.210;10.628;2024-03-08T07:11:27;34.13;;;19.57;;
8536;SDS011;4306;50.210;10.628;2024-03-08T07:13:54;32.73;;;18.67;;
8536;SDS011;4306;50.210;10.628;2024-03-08T07:16:22;30.67;;;18.40;;
8536;SDS011;4306;50.210;10.628;2024-03-08T07:18:50;32.90;;;18.60;;
8536;SDS011;4306;50.210;10.628;2024-03-08T07:21:17;32.50;;;19.13;;
8536;SDS011;4306;50.210;10.628;2024-03-08T07:23:45;31.23;;;17.70;;
8536;SDS011;4306;50.210;10.628;2024-03-08T07:26:38;31.13;;;18.33;;
8536;SDS011;4306;50.210;10.628;2024-03-08T07:29:05;32.37;;;18.30;;
8536;SDS011;4306;50.210;10.628;2024-03-08T07:31:34;32.67;;;19.13;;
8536;SDS011;4306;50.210;10.628;2024-03-08T07:34:15;34.07;;;19.37;;
8536;SDS011;4306;50.210;10.628;2024-03-08T07:36:42;29.47;;;18.37;;
8536;SDS011;4306;50.210;10.628;2024-03-08T07:39:09;34.07;;;19.13;;
8536;SDS011;4306;50.210;10.628;2024-03-08T07:41:38;30.33;;;17.73;;
8536;SDS011;4306;50.210;10.628;2024-03-08T07:44:06;30.07;;;17.90;;
8536;SDS011;4306;50.210;10.628;2024-03-08T07:46:34;33.77;;;18.70;;
8536;SDS011;4306;50.210;10.628;2024-03-08T07:49:02;30.63;;;18.60;;
8536;SDS011;4306;50.210;10.628;2024-03-08T07:51:29;32.27;;;19.00;;
8536;SDS011;4306;50.210;10.628;2024-03-08T07:53:56;30.57;;;17.13;;
8536;SDS011;4306;50.210;10.628;2024-03-08T07:56:24;34.33;;;18.37;;
8536;SDS011;4306;50.210;10.628;2024-03-08T07:58:51;30.97;;;17.90;;
8536;SDS011;4306;50.210;10.628;2024-03-08T08:01:19;31.20;;;17.77;;
8536;SDS011;4306;50.210;10.628;2024-03-08T08:03:47;32.30;;;18.13;;
8536;SDS011;4306;50.210;10.628;2024-03-08T08:06:14;32.67;;;18.17;;
8536;SDS011;4306;50.210;10.628;2024-03-08T08:08:42;31.08;;;17.58;;
8536;SDS011;4306;50.210;10.628;2024-03-08T08:11:09;29.60;;;17.33;;
8536;SDS011;4306;50.210;10.628;2024-03-08T08:13:37;30.70;;;18.10;;
8536;SDS011;4306;50.210;10.628;2024-03-08T08:16:04;31.70;;;18.13;;
8536;SDS011;4306;50.210;10.628;2024-03-08T08:18:32;29.60;;;17.37;;
8536;SDS011;4306;50.210;10.628;2024-03-08T08:21:01;32.77;;;18.90;;
8536;SDS011;4306;50.210;10.628;2024-03-08T08:23:31;28.77;;;17.65;;
8536;SDS011;4306;50.210;10.628;2024-03-08T08:25:58;30.07;;;17.97;;
8536;SDS011;4306;50.210;10.628;2024-03-08T08:28:28;29.93;;;17.60;;
8536;SDS011;4306;50.210;10.628;2024-03-08T08:30:56;32.50;;;18.43;;
8536;SDS011;4306;50.210;10.628;2024-03-08T08:33:24;30.58;;;16.05;;
8536;SDS011;4306;50.210;10.628;2024-03-08T08:35:51;26.38;;;15.68;;
8536;SDS011;4306;50.210;10.628;2024-03-08T08:38:20;27.33;;;17.15;;
8536;SDS011;4306;50.210;10.628;2024-03-08T08:40:48;26.77;;;16.07;;
8536;SDS011;4306;50.210;10.628;2024-03-08T08:43:15;27.35;;;15.95;;
8536;SDS011;4306;50.210;10.628;2024-03-08T08:45:44;27.70;;;17.48;;
8536;SDS011;4306;50.210;10.628;2024-03-08T08:48:12;26.23;;;14.87;;
8536;SDS011;4306;50.210;10.628;2024-03-08T08:50:39;26.15;;;15.40;;
8536;SDS011;4306;50.210;10.628;2024-03-08T08:53:06;28.73;;;16.63;;
8536;SDS011;4306;50.210;10.628;2024-03-08T08:55:35;25.27;;;15.23;;
8536;SDS011;4306;50.210;10.628;2024-03-08T08:58:02;29.83;;;17.50;;
8536;SDS011;4306;50.210;10.628;2024-03-08T09:00:29;26.50;;;16.10;;
8536;SDS011;4306;50.210;10.628;2024-03-08T09:02:56;28.45;;;16.33;;
8536;SDS011;4306;50.210;10.628;2024-03-08T09:05:24;26.15;;;15.00;;
8536;SDS011;4306;50.210;10.628;2024-03-08T09:07:51;26.88;;;14.60;;
8536;SDS011;4306;50.210;10.628;2024-03-08T09:10:19;27.42;;;15.90;;
8536;SDS011;4306;50.210;10.628;2024-03-08T09:12:47;25.30;;;15.27;;
8536;SDS011;4306;50.210;10.628;2024-03-08T09:15:15;25.02;;;16.13;;
8536;SDS011;4306;50.210;10.628;2024-03-08T09:17:42;27.20;;;16.15;;
8536;SDS011;4306;50.210;10.628;2024-03-08T09:20:10;23.35;;;14.68;;
8536;SDS011;4306;50.210;10.628;2024-03-08T09:22:40;30.23;;;15.18;;
8536;SDS011;4306;50.210;10.628;2024-03-08T09:25:08;27.63;;;15.65;;
8536;SDS011;4306;50.210;10.628;2024-03-08T09:27:35;25.77;;;14.35;;
8536;SDS011;4306;50.210;10.628;2024-03-08T09:30:04;24.73;;;14.82;;
8536;SDS011;4306;50.210;10.628;2024-03-08T09:32:32;24.65;;;15.65;;
8536;SDS011;4306;50.210;10.628;2024-03-08T09:34:59;23.33;;;15.27;;
8536;SDS011;4306;50.210;10.628;2024-03-08T09:37:26;24.80;;;14.32;;
8536;SDS011;4306;50.210;10.628;2024-03-08T09:39:53;27.92;;;16.42;;
8536;SDS011;4306;50.210;10.628;2024-03-08T09:42:21;26.77;;;16.33;;
8536;SDS011;4306;50.210;10.628;2024-03-08T09:44:48;23.73;;;14.48;;
8536;SDS011;4306;50.210;10.628;2024-03-08T09:47:16;22.75;;;13.75;;
8536;SDS011;4306;50.210;10.628;2024-03-08T09:49:44;24.85;;;14.43;;
8536;SDS011;4306;50.210;10.628;2024-03-08T09:52:11;23.80;;;14.13;;
8536;SDS011;4306;50.210;10.628;2024-03-08T09:54:39;20.65;;;12.80;;
8536;SDS011;4306;50.210;10.628;2024-03-08T09:57:09;20.35;;;13.25;;
8536;SDS011;4306;50.210;10.628;2024-03-08T09:59:37;23.55;;;13.43;;
8536;SDS011;4306;50.210;10.628;2024-03-08T10:02:13;25.35;;;14.13;;
8536;SDS011;4306;50.210;10.628;2024-03-08T10:04:43;23.50;;;13.93;;
8536;SDS011;4306;50.210;10.628;2024-03-08T10:07:13;25.13;;;13.52;;
8536;SDS011;4306;50.210;10.628;2024-03-08T10:09:40;24.63;;;14.68;;
8536;SDS011;4306;50.210;10.628;2024-03-08T10:12:12;24.00;;;15.30;;
8536;SDS011;4306;50.210;10.628;2024-03-08T10:14:40;23.20;;;13.98;;
8536;SDS011;4306;50.210;10.628;2024-03-08T10:17:08;21.42;;;12.50;;
8536;SDS011;4306;50.210;10.628;2024-03-08T10:19:36;24.05;;;13.95;;
8536;SDS011;4306;50.210;10.628;2024-03-08T10:22:04;24.02;;;14.48;;
8536;SDS011;4306;50.210;10.628;2024-03-08T10:24:31;21.67;;;13.25;;
8536;SDS011;4306;50.210;10.628;2024-03-08T10:27:00;21.67;;;13.35;;
8536;SDS011;4306;50.210;10.628;2024-03-08T10:29:30;22.63;;;13.82;;
8536;SDS011;4306;50.210;10.628;2024-03-08T10:31:57;22.50;;;14.55;;
8536;SDS011;4306;50.210;10.628;2024-03-08T10:34:25;24.85;;;13.68;;
8536;SDS011;4306;50.210;10.628;2024-03-08T10:36:53;22.90;;;14.93;;
8536;SDS011;4306;50.210;10.628;2024-03-08T10:39:30;23.58;;;14.70;;
8536;SDS011;4306;50.210;10.628;2024-03-08T10:42:02;23.85;;;14.00;;
8536;SDS011;4306;50.210;10.628;2024-03-08T10:44:40;24.40;;;15.43;;
8536;SDS011;4306;50.210;10.628;2024-03-08T10:47:18;22.27;;;13.65;;
8536;SDS011;4306;50.210;10.628;2024-03-08T10:49:54;27.38;;;16.63;;
8536;SDS011;4306;50.210;10.628;2024-03-08T10:52:30;30.30;;;18.13;;
8536;SDS011;4306;50.210;10.628;2024-03-08T10:54:59;31.45;;;18.38;;
8536;SDS011;4306;50.210;10.628;2024-03-08T10:57:28;28.17;;;18.15;;
8536;SDS011;4306;50.210;10.628;2024-03-08T10:59:56;22.38;;;13.88;;
8536;SDS011;4306;50.210;10.628;2024-03-08T11:02:24;22.27;;;14.18;;
8536;SDS011;4306;50.210;10.628;2024-03-08T11:04:53;24.48;;;14.80;;
8536;SDS011;4306;50.210;10.628;2024-03-08T11:07:21;21.45;;;13.55;;
8536;SDS011;4306;50.210;10.628;2024-03-08T11:09:50;26.27;;;15.10;;
8536;SDS011;4306;50.210;10.628;2024-03-08T11:12:20;23.05;;;14.75;;
8536;SDS011;4306;50.210;10.628;2024-03-08T11:14:51;22.63;;;14.18;;
8536;SDS011;4306;50.210;10.628;2024-03-08T11:17:26;21.50;;;13.65;;
8536;SDS011;4306;50.210;10.628;2024-03-08T11:20:10;23.50;;;14.27;;
8536;SDS011;4306;50.210;10.628;2024-03-08T11:22:41;21.45;;;13.55;;
8536;SDS011;4306;50.210;10.628;2024-03-08T11:28:06;21.50;;;12.70;;
8536;SDS011;4306;50.210;10.628;2024-03-08T11:30:41;21.90;;;13.20;;
8536;SDS011;4306;50.210;10.628;2024-03-08T11:33:11;24.40;;;13.80;;
8536;SDS011;4306;50.210;10.628;2024-03-08T11:35:39;24.67;;;14.80;;
8536;SDS011;4306;50.210;10.628;2024-03-08T11:38:07;23.25;;;14.77;;
8536;SDS011;4306;50.210;10.628;2024-03-08T11:40:36;23.55;;;14.32;;
8536;SDS011;4306;50.210;10.628;2024-03-08T11:43:05;23.27;;;14.20;;
8536;SDS011;4306;50.210;10.628;2024-03-08T11:45:32;23.77;;;14.65;;
8536;SDS011;4306;50.210;10.628;2024-03-08T11:48:01;22.15;;;14.20;;
8536;SDS011;4306;50.210;10.628;2024-03-08T11:50:29;24.13;;;14.80;;
8536;SDS011;4306;50.210;10.628;2024-03-08T11:53:01;24.95;;;15.00;;
8536;SDS011;4306;50.210;10.628;2024-03-08T11:55:29;26.52;;;14.77;;
8536;SDS011;4306;50.210;10.628;2024-03-08T11:58:05;28.58;;;17.23;;
8536;SDS011;4306;50.210;10.628;2024-03-08T12:00:33;29.42;;;17.05;;
8536;SDS011;4306;50.210;10.628;2024-03-08T12:03:04;21.60;;;13.63;;
8536;SDS011;4306;50.210;10.628;2024-03-08T12:05:34;22.77;;;14.63;;
8536;SDS011;4306;50.210;10.628;2024-03-08T12:08:03;21.30;;;13.20;;
8536;SDS011;4306;50.210;10.628;2024-03-08T12:10:32;18.20;;;11.35;;
8536;SDS011;4306;50.210;10.628;2024-03-08T12:13:00;19.70;;;12.85;;
8536;SDS011;4306;50.210;10.628;2024-03-08T12:15:29;19.48;;;12.30;;
8536;SDS011;4306;50.210;10.628;2024-03-08T12:17:59;21.27;;;13.05;;
8536;SDS011;4306;50.210;10.628;2024-03-08T12:20:30;22.35;;;13.65;;
8536;SDS011;4306;50.210;10.628;2024-03-08T12:22:57;19.27;;;11.23;;
8536;SDS011;4306;50.210;10.628;2024-03-08T12:25:29;20.77;;;13.27;;
8536;SDS011;4306;50.210;10.628;2024-03-08T12:28:06;23.33;;;15.27;;
8536;SDS011;4306;50.210;10.628;2024-03-08T12:30:45;20.67;;;12.68;;
8536;SDS011;4306;50.210;10.628;2024-03-08T12:33:14;18.20;;;12.00;;
8536;SDS011;4306;50.210;10.628;2024-03-08T12:35:54;17.83;;;11.13;;
8536;SDS011;4306;50.210;10.628;2024-03-08T12:38:47;17.95;;;11.32;;
8536;SDS011;4306;50.210;10.628;2024-03-08T12:41:59;17.90;;;11.30;;
8536;SDS011;4306;50.210;10.628;2024-03-08T12:44:52;16.88;;;11.15;;
8536;SDS011;4306;50.210;10.628;2024-03-08T12:47:27;16.60;;;10.05;;
8536;SDS011;4306;50.210;10.628;2024-03-08T12:50:14;16.00;;;10.80;;
8536;SDS011;4306;50.210;10.628;2024-03-08T12:52:52;18.40;;;10.77;;
8536;SDS011;4306;50.210;10.628;2024-03-08T12:55:19;18.95;;;12.50;;
8536;SDS011;4306;50.210;10.628;2024-03-08T12:57:46;15.25;;;11.20;;
8536;SDS011;4306;50.210;10.628;2024-03-08T13:00:14;17.92;;;11.15;;
8536;SDS011;4306;50.210;10.628;2024-03-08T13:02:46;15.43;;;10.95;;
8536;SDS011;4306;50.210;10.628;2024-03-08T13:05:14;16.20;;;11.23;;
8536;SDS011;4306;50.210;10.628;2024-03-08T13:07:42;19.08;;;11.48;;
8536;SDS011;4306;50.210;10.628;2024-03-08T13:10:11;15.20;;;9.52;;
8536;SDS011;4306;50.210;10.628;2024-03-08T13:12:40;16.02;;;10.90;;
8536;SDS011;4306;50.210;10.628;2024-03-08T13:15:07;14.55;;;9.38;;
8536;SDS011;4306;50.210;10.628;2024-03-08T13:17:36;13.68;;;9.20;;
8536;SDS011;4306;50.210;10.628;2024-03-08T13:20:07;16.73;;;10.70;;
8536;SDS011;4306;50.210;10.628;2024-03-08T13:22:41;15.15;;;9.05;;
8536;SDS011;4306;50.210;10.628;2024-03-08T13:25:08;11.80;;;8.52;;
8536;SDS011;4306;50.210;10.628;2024-03-08T13:27:38;13.45;;;8.98;;
8536;SDS011;4306;50.210;10.628;2024-03-08T13:30:06;14.57;;;9.20;;
8536;SDS011;4306;50.210;10.628;2024-03-08T13:32:37;15.00;;;8.80;;
8536;SDS011;4306;50.210;10.628;2024-03-08T13:35:08;14.88;;;10.02;;
8536;SDS011;4306;50.210;10.628;2024-03-08T13:37:38;14.73;;;9.73;;
8536;SDS011;4306;50.210;10.628;2024-03-08T13:40:06;21.92;;;10.07;;
8536;SDS011;4306;50.210;10.628;2024-03-08T13:42:38;14.80;;;9.38;;
8536;SDS011;4306;50.210;10.628;2024-03-08T13:45:07;14.50;;;9.68;;
8536;SDS011;4306;50.210;10.628;2024-03-08T13:47:37;13.88;;;9.35;;
8536;SDS011;4306;50.210;10.628;2024-03-08T13:50:04;14.00;;;9.23;;
8536;SDS011;4306;50.210;10.628;2024-03-08T13:52:37;15.85;;;9.10;;
8536;SDS011;4306;50.210;10.628;2024-03-08T13:55:04;13.63;;;8.65;;
8536;SDS011;4306;50.210;10.628;2024-03-08T13:57:32;10.95;;;6.68;;
8536;SDS011;4306;50.210;10.628;2024-03-08T13:59:59;11.63;;;7.72;;
8536;SDS011;4306;50.210;10.628;2024-03-08T14:02:26;17.63;;;7.50;;
8536;SDS011;4306;50.210;10.628;2024-03-08T14:04:55;15.10;;;8.13;;
8536;SDS011;4306;50.210;10.628;2024-03-08T14:07:24;14.60;;;8.75;;
8536;SDS011;4306;50.210;10.628;2024-03-08T14:09:53;10.95;;;7.10;;
8536;SDS011;4306;50.210;10.628;2024-03-08T14:12:20;11.65;;;7.22;;
8536;SDS011;4306;50.210;10.628;2024-03-08T14:14:48;11.30;;;8.15;;
8536;SDS011;4306;50.210;10.628;2024-03-08T14:17:16;14.32;;;8.98;;
8536;SDS011;4306;50.210;10.628;2024-03-08T14:19:43;12.13;;;7.55;;
8536;SDS011;4306;50.210;10.628;2024-03-08T14:22:10;12.63;;;7.47;;
8536;SDS011;4306;50.210;10.628;2024-03-08T14:24:41;11.10;;;7.30;;
8536;SDS011;4306;50.210;10.628;2024-03-08T14:27:10;11.60;;;8.25;;
8536;SDS011;4306;50.210;10.628;2024-03-08T14:29:37;14.07;;;8.68;;
8536;SDS011;4306;50.210;10.628;2024-03-08T14:32:04;9.27;;;6.53;;
8536;SDS011;4306;50.210;10.628;2024-03-08T14:34:33;12.30;;;6.75;;
8536;SDS011;4306;50.210;10.628;2024-03-08T14:37:00;10.18;;;5.60;;
8536;SDS011;4306;50.210;10.628;2024-03-08T14:39:30;13.57;;;8.00;;
8536;SDS011;4306;50.210;10.628;2024-03-08T14:42:00;11.52;;;7.32;;
8536;SDS011;4306;50.210;10.628;2024-03-08T14:44:28;11.00;;;6.60;;
8536;SDS011;4306;50.210;10.628;2024-03-08T14:46:55;10.55;;;6.40;;
8536;SDS011;4306;50.210;10.628;2024-03-08T14:49:22;8.45;;;5.97;;